Ariton, AL

8:49 AM CDT on July 28, 2015 (GMT -0500)
Asbury | | Change Station
CLOSE
Current Station
Personal Weather Station
Location: Ozark, AL
Elevation: 367 ft
Nearby Weather Stations

Elev 367 ft 31.51 °N, 85.55 °W | Updated 46 seconds ago

Partly Cloudy
Partly Cloudy
81.9 °F
Feels Like 90 °F
N
0.0
Wind Variable Wind from NNW
Gusts 2.0 mph

Today
High -- | Low -- °F
--% Chance of Precip.
Yesterday
High -- | Low -- °F
Precip. -- in
5:56 AM 7:42 PM
Waxing Gibbous, 89% visible
Pressure 29.98 in
Visibility 7.0 miles
Clouds Mostly Cloudy 7500 ft
Heat Index 90 °F
Dew Point 77 °F
Humidity 85%
Rainfall 0.00 in
Snow Depth Not available.
UV 1 out of 12
Pollen 3.70 out of 12
Air Quality Not available.
Flu Activity Not available.
METAR KLOR 281253Z AUTO 00000KT 7SM BKN075 26/23 A2999 RMK AO2 SLP152 T02610233

More Conditions Fewer Conditions

Pressure 29.98 in
Visibility 7.0 miles
Clouds Mostly Cloudy 7500 ft
Heat Index 90 °F
Dew Point 77 °F
Humidity 85%
Rainfall 0.00 in
Snow Depth Not available.
UV 1 out of 12
Pollen 3.70 out of 12
Air Quality Not available.
Flu Activity Not available.
METAR KLOR 281253Z AUTO 00000KT 7SM BKN075 26/23 A2999 RMK AO2 SLP152 T02610233

More Conditions Fewer Conditions

10-Day Weather Forecast

×

Almanac

Astronomy

Jul. 28, 2015 Rise Set
Actual Time
Civil Twilight
Nautical Twilight
Astronomical Twilight
Moon
Length of Visible Light
Length of Day
Tomorrow will be .
, % of the Moon is Illuminated

Today's Extremes

State Highs State Lows

Community

WunderPhotos

Upload Photos

1,841,832 photos uploaded!

WunderBlogs® & News

Nearby

Air Quality

  Air Quality AQ Index Pollutant
Not available.

Snow Depth

Station Depth Elevation

Earthquake Activity

City Distance Mag. Time & Date
Minimum magnitude displayed is 2.5.

Coastal Water Temperatures

Place Temperature

Stations

Nearby Weather Stations

Station Location Temp. Windchill Dew Point Humidity Wind Precip. Elev Updated Type